createdAt,value
2019-03-19T00:00:24.116Z,0
2019-03-19T00:01:33.814Z,0
2019-03-19T00:02:43.772Z,0
2019-03-19T00:03:53.464Z,0
2019-03-19T00:05:03.408Z,0
2019-03-19T00:06:13.372Z,0
2019-03-19T00:07:23.074Z,0
2019-03-19T00:08:32.768Z,0
2019-03-19T00:09:42.718Z,0
2019-03-19T00:10:52.649Z,0
2019-03-19T00:12:05.007Z,0
2019-03-19T00:13:14.960Z,0
2019-03-19T00:14:24.909Z,0
2019-03-19T00:15:34.836Z,0
2019-03-19T00:16:44.844Z,0
2019-03-19T00:17:54.791Z,0
2019-03-19T00:19:04.735Z,0
2019-03-19T00:20:14.685Z,0
2019-03-19T00:21:24.376Z,0
2019-03-19T00:22:34.315Z,0
2019-03-19T00:23:44.262Z,0
2019-03-19T00:24:53.952Z,0
2019-03-19T00:26:03.427Z,0
2019-03-19T00:27:13.400Z,0
2019-03-19T00:28:23.343Z,0
2019-03-19T00:29:33.027Z,0
2019-03-19T00:30:42.977Z,0
2019-03-19T00:31:52.668Z,0
2019-03-19T00:33:02.395Z,0
2019-03-19T00:34:12.349Z,0
2019-03-19T00:35:22.309Z,0
2019-03-19T00:36:32.013Z,0
2019-03-19T00:37:41.710Z,0
2019-03-19T00:38:51.663Z,0
2019-03-19T00:40:01.448Z,0
2019-03-19T00:41:11.146Z,0
2019-03-19T00:42:21.079Z,0
2019-03-19T00:43:31.026Z,0
2019-03-19T00:44:40.962Z,0
2019-03-19T00:45:50.903Z,0
2019-03-19T00:47:00.619Z,0
2019-03-19T00:48:10.567Z,0
2019-03-19T00:49:20.248Z,0
2019-03-19T00:50:30.187Z,0
2019-03-19T00:51:39.878Z,0
2019-03-19T00:52:49.826Z,0
2019-03-19T00:53:59.545Z,0
2019-03-19T00:55:09.484Z,0
2019-03-19T00:56:19.184Z,0
2019-03-19T00:57:29.122Z,0
2019-03-19T00:58:38.815Z,0
2019-03-19T00:59:48.498Z,0
2019-03-19T01:00:58.448Z,0
2019-03-19T01:02:08.373Z,0
2019-03-19T01:03:17.817Z,0
2019-03-19T01:04:27.528Z,0
2019-03-19T01:05:37.209Z,0
2019-03-19T01:06:47.154Z,0
2019-03-19T01:07:57.093Z,0
2019-03-19T01:09:06.799Z,0
2019-03-19T01:10:19.619Z,0
2019-03-19T01:11:29.319Z,0
2019-03-19T01:12:39.250Z,0
2019-03-19T01:13:48.693Z,0
2019-03-19T01:14:58.384Z,0
2019-03-19T01:16:08.072Z,0
2019-03-19T01:17:17.993Z,0
2019-03-19T01:18:27.678Z,0
2019-03-19T01:19:37.636Z,0
2019-03-19T01:20:47.580Z,0
2019-03-19T01:21:57.016Z,0
2019-03-19T01:23:06.194Z,0
2019-03-19T01:24:15.867Z,0
2019-03-19T01:25:26.047Z,0
2019-03-19T01:26:36.002Z,0
2019-03-19T01:27:45.974Z,0
2019-03-19T01:28:55.667Z,0
2019-03-19T01:30:05.603Z,0
2019-03-19T01:31:15.301Z,0
2019-03-19T01:32:25.232Z,0
2019-03-19T01:33:34.943Z,0
2019-03-19T01:34:44.631Z,0
2019-03-19T01:35:54.320Z,0
2019-03-19T01:37:04.257Z,0
2019-03-19T01:38:13.959Z,0
2019-03-19T01:39:23.911Z,0
2019-03-19T01:40:33.862Z,0
2019-03-19T01:41:43.561Z,0
2019-03-19T01:42:53.507Z,0
2019-03-19T01:44:03.446Z,0
2019-03-19T01:45:13.382Z,0
2019-03-19T01:46:23.317Z,0
2019-03-19T01:47:33.329Z,0
2019-03-19T01:48:43.011Z,0
2019-03-19T01:49:52.705Z,0
2019-03-19T01:51:02.393Z,0
2019-03-19T01:52:12.153Z,0
2019-03-19T01:53:21.856Z,0
2019-03-19T01:54:31.831Z,0
2019-03-19T01:55:41.772Z,0
2019-03-19T01:56:51.725Z,0
2019-03-19T01:58:01.670Z,0
2019-03-19T01:59:11.111Z,0
2019-03-19T02:00:20.865Z,0
2019-03-19T02:01:30.550Z,0
2019-03-19T02:02:40.236Z,0
2019-03-19T02:03:49.937Z,0
2019-03-19T02:04:59.375Z,0
2019-03-19T02:06:09.319Z,0
2019-03-19T02:07:19.261Z,0
2019-03-19T02:08:29.198Z,0
2019-03-19T02:09:39.139Z,0
2019-03-19T02:10:48.833Z,0
2019-03-19T02:11:58.515Z,0
2019-03-19T02:13:07.952Z,0
2019-03-19T02:14:17.646Z,0
2019-03-19T02:15:27.609Z,0
2019-03-19T02:16:37.295Z,0
2019-03-19T02:17:46.976Z,0
2019-03-19T02:18:56.681Z,0
2019-03-19T02:20:06.626Z,0
2019-03-19T02:21:16.324Z,0
2019-03-19T02:22:26.014Z,0
2019-03-19T02:23:35.970Z,0
2019-03-19T02:24:45.913Z,0
2019-03-19T02:25:55.620Z,0
2019-03-19T02:27:05.570Z,0
2019-03-19T02:28:15.264Z,0
2019-03-19T02:29:25.227Z,0
2019-03-19T02:30:34.952Z,0
2019-03-19T02:31:44.456Z,0
2019-03-19T02:32:54.173Z,0
2019-03-19T02:34:04.132Z,0
2019-03-19T02:35:13.906Z,0
2019-03-19T02:36:23.888Z,0
2019-03-19T02:37:33.847Z,0
2019-03-19T02:38:43.552Z,0
2019-03-19T02:39:53.259Z,0
2019-03-19T02:41:02.971Z,0
2019-03-19T02:42:12.427Z,0
2019-03-19T02:43:25.247Z,0
2019-03-19T02:44:35.054Z,0
2019-03-19T02:45:44.804Z,0
2019-03-19T02:46:54.769Z,0
2019-03-19T02:48:04.538Z,0
2019-03-19T02:49:14.513Z,0
2019-03-19T02:50:24.233Z,0
2019-03-19T02:51:33.943Z,0
2019-03-19T02:52:43.935Z,0
2019-03-19T02:53:54.100Z,0
2019-03-19T02:55:04.070Z,0
2019-03-19T02:56:14.026Z,0
2019-03-19T02:57:39.315Z,0
2019-03-19T02:58:49.021Z,0
2019-03-19T02:59:58.988Z,0
2019-03-19T03:01:09.007Z,0
2019-03-19T03:02:18.740Z,0
2019-03-19T03:03:28.209Z,0
2019-03-19T03:04:38.180Z,0
2019-03-19T03:05:48.143Z,0
2019-03-19T03:06:58.113Z,0
2019-03-19T03:08:07.808Z,0
2019-03-19T03:09:17.769Z,0
2019-03-19T03:10:27.722Z,0
2019-03-19T03:11:37.688Z,0
2019-03-19T03:12:47.403Z,0
2019-03-19T03:13:57.432Z,0
2019-03-19T03:15:07.450Z,0
2019-03-19T03:16:17.405Z,0
2019-03-19T03:17:26.847Z,0
2019-03-19T03:18:36.803Z,0
2019-03-19T03:19:46.855Z,0
2019-03-19T03:20:56.584Z,0
2019-03-19T03:22:06.559Z,0
2019-03-19T03:23:16.523Z,0
2019-03-19T03:24:26.484Z,0
2019-03-19T03:25:36.436Z,0
2019-03-19T03:26:54.887Z,0
2019-03-19T03:28:04.342Z,0
2019-03-19T03:29:14.043Z,0
2019-03-19T03:30:24.267Z,0
2019-03-19T03:31:34.344Z,0
2019-03-19T03:32:44.362Z,0
2019-03-19T03:33:54.427Z,0
2019-03-19T03:35:04.476Z,0
2019-03-19T03:36:14.452Z,0
2019-03-19T03:37:24.157Z,0
2019-03-19T03:38:33.856Z,0
2019-03-19T03:39:43.585Z,0
2019-03-19T03:40:53.542Z,0
2019-03-19T03:42:03.268Z,0
2019-03-19T03:43:13.245Z,0
2019-03-19T03:44:22.951Z,0
2019-03-19T03:45:32.662Z,0
2019-03-19T03:46:42.111Z,0
2019-03-19T03:47:52.075Z,0
2019-03-19T03:49:01.810Z,0
2019-03-19T03:50:11.530Z,0
2019-03-19T03:51:21.482Z,0
2019-03-19T03:52:31.182Z,0
2019-03-19T03:53:40.881Z,0
2019-03-19T03:54:50.847Z,0
2019-03-19T03:56:00.837Z,0
2019-03-19T03:57:10.542Z,0
2019-03-19T03:58:20.532Z,0
2019-03-19T03:59:30.482Z,0
2019-03-19T04:00:40.443Z,0
2019-03-19T04:01:49.907Z,0
2019-03-19T04:02:59.915Z,0
2019-03-19T04:04:09.367Z,0
2019-03-19T04:05:19.093Z,0
2019-03-19T04:06:29.064Z,0
2019-03-19T04:07:38.758Z,0
2019-03-19T04:08:48.791Z,0
2019-03-19T04:09:58.839Z,0
2019-03-19T04:11:08.809Z,0
2019-03-19T04:12:18.512Z,0
2019-03-19T04:13:28.225Z,0
2019-03-19T04:14:38.221Z,0
2019-03-19T04:15:48.170Z,0
2019-03-19T04:16:57.615Z,0
2019-03-19T04:18:07.325Z,0
2019-03-19T04:19:17.041Z,0
2019-03-19T04:20:26.993Z,0
2019-03-19T04:21:36.944Z,0
2019-03-19T04:22:46.955Z,0
2019-03-19T04:23:56.943Z,0
2019-03-19T04:25:06.665Z,0
2019-03-19T04:26:16.359Z,0
2019-03-19T04:27:26.054Z,0
2019-03-19T04:28:35.750Z,0
2019-03-19T04:29:45.759Z,0
2019-03-19T04:30:55.706Z,0
2019-03-19T04:32:05.447Z,0
2019-03-19T04:33:15.403Z,0
2019-03-19T04:34:25.133Z,0
2019-03-19T04:35:34.833Z,0
2019-03-19T04:36:44.828Z,0
2019-03-19T04:37:54.760Z,0
2019-03-19T04:39:04.470Z,0
2019-03-19T04:40:14.426Z,0
2019-03-19T04:41:24.139Z,0
2019-03-19T04:42:34.085Z,0
2019-03-19T04:43:44.027Z,4
2019-03-19T04:44:54.037Z,0
2019-03-19T04:46:03.754Z,4
2019-03-19T04:47:13.202Z,0
2019-03-19T04:48:22.897Z,4
2019-03-19T04:49:32.573Z,4
2019-03-19T04:50:42.515Z,8
2019-03-19T04:51:52.480Z,8
2019-03-19T04:53:02.420Z,8
2019-03-19T04:54:12.448Z,12
2019-03-19T04:55:22.156Z,8
2019-03-19T04:56:32.110Z,12
2019-03-19T04:57:42.048Z,16
2019-03-19T04:58:51.999Z,20
2019-03-19T05:00:03.840Z,20
2019-03-19T05:01:13.540Z,24
2019-03-19T05:02:23.233Z,24
2019-03-19T05:03:32.930Z,32
2019-03-19T05:04:43.026Z,40
2019-03-19T05:05:52.732Z,48
2019-03-19T05:07:02.727Z,56
2019-03-19T05:08:12.431Z,64
2019-03-19T05:09:22.365Z,76
2019-03-19T05:10:32.083Z,84
2019-03-19T05:11:42.025Z,100
2019-03-19T05:12:51.737Z,116
2019-03-19T05:14:01.191Z,132
2019-03-19T05:15:11.165Z,148
2019-03-19T05:16:21.092Z,160
2019-03-19T05:17:31.033Z,176
2019-03-19T05:18:40.992Z,184
2019-03-19T05:19:50.959Z,196
2019-03-19T05:21:00.647Z,204
2019-03-19T05:22:10.360Z,224
2019-03-19T05:23:20.302Z,236
2019-03-19T05:24:29.991Z,252
2019-03-19T05:25:39.669Z,264
2019-03-19T05:26:49.613Z,272
2019-03-19T05:27:59.320Z,288
2019-03-19T05:29:09.016Z,300
2019-03-19T05:30:18.953Z,308
2019-03-19T05:31:28.635Z,316
2019-03-19T05:32:38.366Z,324
2019-03-19T05:33:48.314Z,344
2019-03-19T05:34:58.011Z,360
2019-03-19T05:36:07.991Z,380
2019-03-19T05:37:17.943Z,404
2019-03-19T05:38:27.892Z,424
2019-03-19T05:39:37.856Z,448
2019-03-19T05:40:47.791Z,484
2019-03-19T05:41:57.484Z,520
2019-03-19T05:43:07.174Z,548
2019-03-19T05:44:17.338Z,576
2019-03-19T05:45:27.041Z,604
2019-03-19T05:46:36.980Z,632
2019-03-19T05:47:47.989Z,652
2019-03-19T05:48:57.954Z,664
2019-03-19T05:50:07.918Z,680
2019-03-19T05:51:17.874Z,696
2019-03-19T05:52:27.813Z,696
2019-03-19T05:53:37.759Z,696
2019-03-19T05:54:47.456Z,692
2019-03-19T05:55:57.432Z,716
2019-03-19T05:57:07.140Z,740
2019-03-19T05:58:17.106Z,764
2019-03-19T05:59:27.066Z,796
2019-03-19T06:00:36.532Z,832
2019-03-19T06:01:46.228Z,876
2019-03-19T06:02:55.668Z,920
2019-03-19T06:04:05.616Z,964
2019-03-19T06:05:15.554Z,1012
2019-03-19T06:06:25.381Z,1056
2019-03-19T06:07:34.828Z,1112
2019-03-19T06:08:44.779Z,1184
2019-03-19T06:09:54.721Z,1260
2019-03-19T06:11:04.402Z,1344
2019-03-19T06:12:14.091Z,1428
2019-03-19T06:13:23.788Z,1472
2019-03-19T06:14:33.741Z,1480
2019-03-19T06:15:43.470Z,1436
2019-03-19T06:16:53.161Z,1368
2019-03-19T06:18:03.109Z,1332
2019-03-19T06:19:13.063Z,1316
2019-03-19T06:20:22.798Z,1348
2019-03-19T06:21:32.511Z,1368
2019-03-19T06:22:42.451Z,1400
2019-03-19T06:23:52.149Z,1424
2019-03-19T06:25:02.104Z,1440
2019-03-19T06:26:12.049Z,1496
2019-03-19T06:27:21.735Z,1596
2019-03-19T06:28:31.708Z,1704
2019-03-19T06:29:43.332Z,1800
2019-03-19T06:30:52.779Z,1880
2019-03-19T06:32:02.487Z,1960
2019-03-19T06:33:12.459Z,2056
2019-03-19T06:34:22.471Z,2136
2019-03-19T06:35:31.927Z,2216
2019-03-19T06:36:41.947Z,2320
2019-03-19T06:37:51.889Z,2424
2019-03-19T06:39:01.841Z,2524
2019-03-19T06:40:11.800Z,2636
2019-03-19T06:41:21.227Z,2756
2019-03-19T06:42:31.171Z,2840
2019-03-19T06:43:41.108Z,2920
2019-03-19T06:44:51.050Z,2972
2019-03-19T06:46:01.019Z,3032
2019-03-19T06:47:10.469Z,3104
2019-03-19T06:48:20.156Z,3192
2019-03-19T06:49:30.162Z,3292
2019-03-19T06:50:49.962Z,3440
2019-03-19T06:51:59.655Z,3568
2019-03-19T06:53:09.363Z,3696
2019-03-19T06:54:19.306Z,3792
2019-03-19T06:55:29.259Z,3892
2019-03-19T06:56:39.218Z,3992
2019-03-19T06:57:49.209Z,4092
2019-03-19T06:58:58.913Z,4160
2019-03-19T07:00:08.858Z,4188
2019-03-19T07:01:19.974Z,4200
2019-03-19T07:02:29.677Z,4292
2019-03-19T07:03:39.370Z,4376
2019-03-19T07:04:49.319Z,4528
2019-03-19T07:05:59.016Z,4612
2019-03-19T07:07:08.998Z,4672
2019-03-19T07:08:18.968Z,4764
2019-03-19T07:09:28.915Z,4840
2019-03-19T07:10:38.620Z,4856
2019-03-19T07:11:48.569Z,5020
2019-03-19T07:12:58.539Z,5208
2019-03-19T07:14:08.517Z,5032
2019-03-19T07:15:18.221Z,5348
2019-03-19T07:16:28.163Z,5772
2019-03-19T07:17:37.854Z,6084
2019-03-19T07:18:47.582Z,5952
2019-03-19T07:19:57.601Z,6028
2019-03-19T07:21:07.303Z,6180
2019-03-19T07:22:17.254Z,6500
2019-03-19T07:23:27.190Z,6648
2019-03-19T07:24:36.899Z,6800
2019-03-19T07:25:46.861Z,6568
2019-03-19T07:26:56.833Z,6640
2019-03-19T07:28:06.824Z,6708
2019-03-19T07:29:16.759Z,6652
2019-03-19T07:30:26.501Z,6836
2019-03-19T07:31:38.305Z,6892
2019-03-19T07:32:48.269Z,6864
2019-03-19T07:33:58.218Z,6828
2019-03-19T07:35:07.939Z,7276
2019-03-19T07:36:17.621Z,7112
2019-03-19T07:37:26.807Z,7052
2019-03-19T07:38:40.564Z,7068
2019-03-19T07:39:50.507Z,7088
2019-03-19T07:41:00.453Z,7164
2019-03-19T07:42:10.205Z,7284
2019-03-19T07:43:19.906Z,7368
2019-03-19T07:44:29.863Z,7292
2019-03-19T07:45:39.827Z,7216
2019-03-19T07:46:50.808Z,7316
2019-03-19T07:48:00.758Z,7532
2019-03-19T07:49:10.711Z,7824
2019-03-19T07:50:20.403Z,7964
2019-03-19T07:51:30.123Z,8148
2019-03-19T07:52:40.085Z,8464
2019-03-19T07:53:49.787Z,8816
2019-03-19T07:54:59.265Z,9316
2019-03-19T07:56:09.258Z,9516
2019-03-19T07:57:18.981Z,9824
2019-03-19T07:58:50.230Z,9460
2019-03-19T08:00:00.338Z,9092
2019-03-19T08:01:10.280Z,8756
2019-03-19T08:02:19.725Z,8828
2019-03-19T08:03:29.670Z,9068
2019-03-19T08:04:39.613Z,9408
2019-03-19T08:05:49.554Z,9708
2019-03-19T08:06:59.502Z,9876
2019-03-19T08:08:09.497Z,9912
2019-03-19T08:09:19.465Z,9936
2019-03-19T08:10:29.482Z,9696
2019-03-19T08:11:39.436Z,9664
2019-03-19T08:12:49.373Z,9844
2019-03-19T08:13:59.390Z,10324
2019-03-19T08:15:09.336Z,9988
2019-03-19T08:16:29.745Z,9596
2019-03-19T08:17:39.742Z,9444
2019-03-19T08:18:50.759Z,9408
2019-03-19T08:20:02.124Z,9672
2019-03-19T08:21:11.831Z,9352
2019-03-19T08:22:22.015Z,9416
2019-03-19T08:23:32.000Z,9624
2019-03-19T08:24:41.803Z,11204
2019-03-19T08:25:51.533Z,10604
2019-03-19T08:27:01.001Z,9568
2019-03-19T08:28:10.745Z,8620
2019-03-19T08:29:20.717Z,9816
2019-03-19T08:30:32.142Z,10592
2019-03-19T08:31:42.081Z,11856
2019-03-19T08:32:52.050Z,10224
2019-03-19T08:34:01.749Z,11004
2019-03-19T08:35:11.701Z,13196
2019-03-19T08:36:21.152Z,11308
2019-03-19T08:37:30.873Z,11312
2019-03-19T08:38:40.569Z,10368
2019-03-19T08:39:49.881Z,9700
2019-03-19T08:40:59.874Z,10036
2019-03-19T08:42:09.854Z,9500
2019-03-19T08:43:20.412Z,10560
2019-03-19T08:44:34.948Z,12232
2019-03-19T08:45:44.694Z,12188
2019-03-19T08:46:54.438Z,12084
2019-03-19T08:48:04.418Z,13036
2019-03-19T08:49:14.359Z,14724
2019-03-19T08:50:24.374Z,12252
2019-03-19T08:51:34.079Z,11984
2019-03-19T08:52:44.064Z,11176
2019-03-19T08:53:53.756Z,10784
2019-03-19T08:55:03.705Z,10860
2019-03-19T08:56:13.643Z,10316
2019-03-19T08:57:23.075Z,9780
2019-03-19T08:58:33.023Z,9444
2019-03-19T08:59:42.727Z,10548
2019-03-19T09:00:52.207Z,10768
2019-03-19T09:02:02.168Z,11760
2019-03-19T09:03:11.859Z,11472
2019-03-19T09:04:21.812Z,11884
2019-03-19T09:05:31.491Z,10200
2019-03-19T09:06:41.424Z,11532
2019-03-19T09:07:51.383Z,11616
2019-03-19T09:09:01.081Z,11804
2019-03-19T09:10:10.762Z,11960
2019-03-19T09:11:20.475Z,12280
2019-03-19T09:12:30.425Z,12524
2019-03-19T09:13:40.126Z,12332
2019-03-19T09:14:50.079Z,9928
2019-03-19T09:16:00.026Z,9812
2019-03-19T09:17:09.977Z,12124
2019-03-19T09:18:20.976Z,8680
2019-03-19T09:19:30.679Z,8676
2019-03-19T09:20:40.369Z,9088
2019-03-19T09:21:50.316Z,13060
2019-03-19T09:23:00.285Z,13504
2019-03-19T09:24:10.003Z,14536
2019-03-19T09:25:19.710Z,15508
2019-03-19T09:26:29.700Z,12480
2019-03-19T09:27:39.157Z,16608
2019-03-19T09:28:49.112Z,14196
2019-03-19T09:29:58.318Z,14884
2019-03-19T09:31:08.266Z,14688
2019-03-19T09:32:17.952Z,14356
2019-03-19T09:33:27.658Z,15236
2019-03-19T09:34:37.605Z,12664
2019-03-19T09:35:47.571Z,11444
2019-03-19T09:37:04.777Z,10284
2019-03-19T09:38:14.490Z,10148
2019-03-19T09:39:24.184Z,10744
2019-03-19T09:40:34.183Z,11584
2019-03-19T09:41:44.129Z,12184
2019-03-19T09:42:54.156Z,12572
2019-03-19T09:44:04.132Z,12364
2019-03-19T09:45:13.827Z,16896
2019-03-19T09:46:25.508Z,11464
2019-03-19T09:47:35.492Z,15680
2019-03-19T09:48:47.726Z,15396
2019-03-19T09:49:57.789Z,13868
2019-03-19T09:51:07.920Z,13148
2019-03-19T09:52:17.878Z,16576
2019-03-19T09:53:27.842Z,13752
2019-03-19T09:54:39.180Z,11032
2019-03-19T09:55:49.146Z,17536
2019-03-19T09:56:58.589Z,18176
2019-03-19T09:58:08.548Z,18016
2019-03-19T09:59:29.102Z,18752
2019-03-19T10:00:38.581Z,19328
2019-03-19T10:01:48.798Z,19936
2019-03-19T10:02:58.513Z,20928
2019-03-19T10:04:07.955Z,21344
2019-03-19T10:05:17.920Z,22112
2019-03-19T10:06:27.624Z,22976
2019-03-19T10:07:37.571Z,23648
2019-03-19T10:08:47.283Z,24128
2019-03-19T10:09:57.428Z,24672
2019-03-19T10:11:07.131Z,25728
2019-03-19T10:12:16.885Z,25472
2019-03-19T10:13:26.604Z,11968
2019-03-19T10:14:36.296Z,24704
2019-03-19T10:15:46.261Z,30176
2019-03-19T10:16:56.252Z,29568
2019-03-19T10:18:06.227Z,30528
2019-03-19T10:19:15.935Z,29632
2019-03-19T10:20:25.933Z,16064
2019-03-19T10:21:35.965Z,12992
2019-03-19T10:22:45.908Z,11960
2019-03-19T10:23:55.866Z,13188
2019-03-19T10:25:05.826Z,26528
2019-03-19T10:26:15.781Z,19808
2019-03-19T10:27:26.927Z,35200
2019-03-19T10:28:36.874Z,35456
2019-03-19T10:29:46.603Z,35904
2019-03-19T10:30:56.301Z,32736
2019-03-19T10:32:06.017Z,12008
2019-03-19T10:33:18.397Z,11756
2019-03-19T10:34:28.126Z,36896
2019-03-19T10:35:37.932Z,37376
2019-03-19T10:36:47.658Z,10832
2019-03-19T10:37:57.375Z,10804
2019-03-19T10:39:09.001Z,11680
2019-03-19T10:40:19.185Z,37952
2019-03-19T10:41:28.888Z,38752
2019-03-19T10:42:38.094Z,41024
2019-03-19T10:43:48.045Z,39872
2019-03-19T10:44:57.757Z,39552
2019-03-19T10:46:07.905Z,39392
2019-03-19T10:47:17.866Z,42144
2019-03-19T10:48:27.570Z,15060
2019-03-19T10:49:37.259Z,11704
2019-03-19T10:50:47.204Z,11996
2019-03-19T10:51:57.178Z,13096
2019-03-19T10:53:07.142Z,11616
2019-03-19T10:54:16.852Z,11872
2019-03-19T10:55:26.817Z,11264
2019-03-19T10:56:38.715Z,18272
2019-03-19T10:57:48.950Z,18176
2019-03-19T10:58:58.910Z,48672
2019-03-19T11:00:08.614Z,14908
2019-03-19T11:01:18.335Z,35616
2019-03-19T11:02:28.301Z,26816
2019-03-19T11:03:38.256Z,50304
2019-03-19T11:04:47.972Z,49088
2019-03-19T11:05:57.969Z,52640
2019-03-19T11:07:07.924Z,52544
2019-03-19T11:08:17.871Z,53056
2019-03-19T11:09:27.822Z,53920
2019-03-19T11:10:37.543Z,54688
2019-03-19T11:11:47.499Z,55008
2019-03-19T11:12:57.214Z,57216
2019-03-19T11:14:07.160Z,58240
2019-03-19T11:15:17.115Z,60320
2019-03-19T11:16:27.086Z,60640
2019-03-19T11:17:36.806Z,62912
2019-03-19T11:18:46.759Z,30592
2019-03-19T11:19:56.728Z,13304
2019-03-19T11:21:06.690Z,12300
2019-03-19T11:22:16.644Z,12680
2019-03-19T11:23:26.364Z,13244
2019-03-19T11:24:36.432Z,13724
2019-03-19T11:25:56.517Z,52480
2019-03-19T11:27:06.231Z,67232
2019-03-19T11:28:18.546Z,66464
2019-03-19T11:29:28.313Z,68896
2019-03-19T11:30:38.279Z,69728
2019-03-19T11:31:48.228Z,69792
2019-03-19T11:32:57.716Z,69536
2019-03-19T11:34:07.722Z,71936
2019-03-19T11:35:17.735Z,74176
2019-03-19T11:36:27.462Z,75904
2019-03-19T11:37:37.434Z,73824
2019-03-19T11:38:47.402Z,76608
2019-03-19T11:39:57.366Z,18496
2019-03-19T11:41:09.732Z,74752
2019-03-19T11:42:19.720Z,73664
2019-03-19T11:43:29.156Z,74336
2019-03-19T11:44:38.910Z,75488
2019-03-19T11:45:50.577Z,72288
2019-03-19T11:47:00.879Z,13244
2019-03-19T11:48:10.857Z,9464
2019-03-19T11:49:20.944Z,8388
2019-03-19T11:50:33.124Z,7816
2019-03-19T11:51:43.093Z,7708
2019-03-19T11:52:52.821Z,7968
2019-03-19T11:54:02.802Z,8320
2019-03-19T11:55:12.260Z,8720
2019-03-19T11:56:22.275Z,9412
2019-03-19T11:57:32.246Z,10208
2019-03-19T11:58:41.957Z,11132
2019-03-19T11:59:51.427Z,11800
2019-03-19T12:01:01.372Z,12340
2019-03-19T12:02:11.366Z,12576
2019-03-19T12:03:23.256Z,12516
2019-03-19T12:04:33.216Z,12400
2019-03-19T12:05:42.930Z,12740
2019-03-19T12:06:52.389Z,12868
2019-03-19T12:08:02.354Z,12548
2019-03-19T12:09:12.340Z,12436
2019-03-19T12:10:22.314Z,12480
2019-03-19T12:11:32.020Z,12724
2019-03-19T12:12:41.470Z,13236
2019-03-19T12:13:51.427Z,14104
2019-03-19T12:15:01.397Z,14976
2019-03-19T12:16:11.372Z,15988
2019-03-19T12:17:21.079Z,17184
2019-03-19T12:18:30.521Z,18080
2019-03-19T12:19:40.491Z,18528
2019-03-19T12:20:50.193Z,19168
2019-03-19T12:21:59.900Z,29472
2019-03-19T12:23:09.911Z,35520
2019-03-19T12:24:19.868Z,58304
2019-03-19T12:25:31.167Z,45760
2019-03-19T12:26:41.376Z,34784
2019-03-19T12:27:51.075Z,79776
2019-03-19T12:29:01.038Z,92320
2019-03-19T12:30:21.357Z,94336
2019-03-19T12:31:33.859Z,18496
2019-03-19T12:32:43.565Z,38912
2019-03-19T12:33:53.530Z,90944
2019-03-19T12:35:04.562Z,85344
2019-03-19T12:36:14.274Z,93344
2019-03-19T12:37:24.237Z,76320
2019-03-19T12:38:33.689Z,97344
2019-03-19T12:39:43.147Z,100832
2019-03-19T12:40:53.091Z,99392
2019-03-19T12:42:03.097Z,104384
2019-03-19T12:43:13.113Z,99008
2019-03-19T12:44:22.930Z,101440
2019-03-19T12:45:32.676Z,86272
2019-03-19T12:46:42.689Z,22752
2019-03-19T12:47:52.660Z,22656
2019-03-19T12:49:02.387Z,27808
2019-03-19T12:50:11.910Z,111296
2019-03-19T12:51:21.622Z,105920
2019-03-19T12:52:31.335Z,98368
2019-03-19T12:53:41.292Z,39424
2019-03-19T12:54:51.017Z,17312
2019-03-19T12:56:01.001Z,15224
2019-03-19T12:57:10.959Z,14500
2019-03-19T12:58:20.697Z,14576
2019-03-19T12:59:30.441Z,15104
2019-03-19T13:01:02.779Z,14868
2019-03-19T13:02:12.876Z,15316
2019-03-19T13:03:22.891Z,16668
2019-03-19T13:04:32.643Z,17824
2019-03-19T13:05:42.371Z,19136
2019-03-19T13:06:52.120Z,19680
2019-03-19T13:08:01.821Z,23680
2019-03-19T13:09:11.793Z,69984
2019-03-19T13:10:21.768Z,28800
2019-03-19T13:11:31.235Z,27936
2019-03-19T13:12:41.199Z,19200
2019-03-19T13:13:50.953Z,16040
2019-03-19T13:15:00.958Z,14552
2019-03-19T13:16:10.937Z,13336
2019-03-19T13:17:20.439Z,12508
2019-03-19T13:18:29.903Z,12164
2019-03-19T13:19:39.591Z,12184
2019-03-19T13:20:49.580Z,12432
2019-03-19T13:22:01.276Z,12896
2019-03-19T13:23:11.256Z,16132
2019-03-19T13:24:22.229Z,26784
2019-03-19T13:25:32.263Z,14056
2019-03-19T13:26:42.211Z,12608
2019-03-19T13:27:51.677Z,11196
2019-03-19T13:29:01.385Z,9928
2019-03-19T13:30:10.836Z,9168
2019-03-19T13:31:20.548Z,8656
2019-03-19T13:32:30.829Z,8280
2019-03-19T13:33:40.812Z,7996
2019-03-19T13:34:50.089Z,7824
2019-03-19T13:36:00.060Z,7620
2019-03-19T13:37:10.000Z,7424
2019-03-19T13:38:20.014Z,7260
2019-03-19T13:39:29.771Z,7268
2019-03-19T13:40:39.487Z,7388
2019-03-19T13:41:48.955Z,7576
2019-03-19T13:42:58.654Z,7804
2019-03-19T13:44:08.344Z,7944
2019-03-19T13:45:19.051Z,7872
2019-03-19T13:46:28.738Z,7884
2019-03-19T13:47:38.674Z,7976
2019-03-19T13:48:48.390Z,8216
2019-03-19T13:49:58.350Z,8648
2019-03-19T13:51:08.079Z,9200
2019-03-19T13:52:18.050Z,9876
2019-03-19T13:53:28.062Z,10552
2019-03-19T13:54:37.540Z,11172
2019-03-19T13:55:47.231Z,11968
2019-03-19T13:56:56.707Z,12560
2019-03-19T13:58:06.415Z,13284
2019-03-19T13:59:16.182Z,14004
2019-03-19T14:00:25.905Z,14880
2019-03-19T14:01:35.865Z,16172
2019-03-19T14:02:45.596Z,20000
2019-03-19T14:03:55.555Z,19200
2019-03-19T14:05:05.561Z,18752
2019-03-19T14:06:15.518Z,18272
2019-03-19T14:07:24.967Z,17856
2019-03-19T14:08:34.920Z,17280
2019-03-19T14:09:44.609Z,18720
2019-03-19T14:10:56.454Z,18848
2019-03-19T14:12:06.470Z,17472
2019-03-19T14:13:16.198Z,17248
2019-03-19T14:14:25.919Z,17760
2019-03-19T14:15:35.902Z,18368
2019-03-19T14:16:45.847Z,24032
2019-03-19T14:17:55.798Z,19296
2019-03-19T14:19:05.823Z,19520
2019-03-19T14:20:15.816Z,20448
2019-03-19T14:21:25.806Z,22016
2019-03-19T14:22:35.274Z,23168
2019-03-19T14:23:45.230Z,20448
2019-03-19T14:24:55.202Z,21184
2019-03-19T14:26:05.164Z,22496
2019-03-19T14:27:14.871Z,48480
2019-03-19T14:28:26.863Z,23584
2019-03-19T14:29:36.589Z,21568
2019-03-19T14:30:46.560Z,20544
2019-03-19T14:31:56.535Z,21056
2019-03-19T14:33:06.259Z,21760
2019-03-19T14:34:16.269Z,24544
2019-03-19T14:35:36.531Z,24896
2019-03-19T14:36:46.809Z,29760
2019-03-19T14:37:56.773Z,24480
2019-03-19T14:39:07.352Z,23872
2019-03-19T14:40:17.316Z,24224
2019-03-19T14:41:27.273Z,26912
2019-03-19T14:42:36.979Z,65184
2019-03-19T14:43:46.939Z,31456
2019-03-19T14:44:56.949Z,24544
2019-03-19T14:46:06.393Z,22784
2019-03-19T14:47:16.117Z,21600
2019-03-19T14:48:25.831Z,20800
2019-03-19T14:49:46.021Z,20352
2019-03-19T14:50:57.577Z,19872
2019-03-19T14:52:07.567Z,19488
2019-03-19T14:53:17.289Z,19168
2019-03-19T14:54:26.983Z,18944
2019-03-19T14:55:36.941Z,18752
2019-03-19T14:56:46.913Z,18528
2019-03-19T14:57:57.955Z,19136
2019-03-19T14:59:07.916Z,20384
2019-03-19T15:00:17.360Z,20768
2019-03-19T15:01:27.312Z,20352
2019-03-19T15:02:37.014Z,18400
2019-03-19T15:03:46.726Z,17728
2019-03-19T15:04:56.690Z,80256
2019-03-19T15:06:06.395Z,97184
2019-03-19T15:07:16.088Z,92352
2019-03-19T15:08:28.022Z,83424
2019-03-19T15:09:37.974Z,83264
2019-03-19T15:10:47.921Z,65536
2019-03-19T15:11:57.904Z,85696
2019-03-19T15:13:07.653Z,48640
2019-03-19T15:14:17.617Z,42400
2019-03-19T15:15:27.590Z,54080
2019-03-19T15:16:37.552Z,49312
2019-03-19T15:17:47.260Z,94656
2019-03-19T15:18:57.015Z,85920
2019-03-19T15:20:06.984Z,93408
2019-03-19T15:21:16.951Z,97536
2019-03-19T15:22:37.114Z,90080
2019-03-19T15:23:46.803Z,25312
2019-03-19T15:24:56.838Z,11928
2019-03-19T15:26:06.801Z,10828
2019-03-19T15:27:16.763Z,12436
2019-03-19T15:28:26.472Z,31552
2019-03-19T15:29:35.926Z,23712
2019-03-19T15:30:45.660Z,10776
2019-03-19T15:31:55.614Z,8216
2019-03-19T15:33:05.660Z,7360
2019-03-19T15:34:15.095Z,9592
2019-03-19T15:35:25.056Z,15216
2019-03-19T15:36:34.513Z,52512
2019-03-19T15:37:44.236Z,67936
2019-03-19T15:38:54.204Z,8956
2019-03-19T15:40:03.906Z,9168
2019-03-19T15:41:13.874Z,10804
2019-03-19T15:42:23.600Z,11612
2019-03-19T15:43:33.560Z,11280
2019-03-19T15:44:43.572Z,10404
2019-03-19T15:45:53.539Z,9076
2019-03-19T15:47:03.262Z,8244
2019-03-19T15:48:13.244Z,7644
2019-03-19T15:49:23.279Z,6944
2019-03-19T15:50:32.988Z,6264
2019-03-19T15:51:42.942Z,5904
2019-03-19T15:52:52.636Z,5624